Terminal Aerodrome Forecast
Issued by NWS

Home | Current Version | Previous Version | Text Only | Print | Product List | Glossary On
Versions: 1 2 3 4 5 6 7 8 9 10 11 12 13 14 15 16 17 18 19 20 21 22 23 24 25 26 27 28 29 30 31 32 33 34 35 36 37 38 39 40 41 42 43 44 45 46 47 48
885
FTUS43 KDDC 281739 AAA
TAFGCK
TAF AMD
KGCK 281739Z 2818/2918 21010KT P6SM SKC
     FM282200 13010KT P6SM SKC
     FM290400 12012KT P6SM FEW250 WS020/19050KT
     FM291000 14013KT P6SM FEW200
     FM291400 23012KT P6SM FEW200=

USA.gov is the U.S. government's official web portal to all federal, state and local government web resources and services.